createdAt,value
2018-09-18T00:01:40.840Z,4.70
2018-09-18T00:04:09.528Z,4.90
2018-09-18T00:06:38.173Z,4.50
2018-09-18T00:09:09.280Z,4.42
2018-09-18T00:11:38.163Z,4.27
2018-09-18T00:14:07.063Z,4.90
2018-09-18T00:16:35.941Z,4.67
2018-09-18T00:19:04.769Z,4.73
2018-09-18T00:21:33.346Z,4.20
2018-09-18T00:24:01.978Z,4.50
2018-09-18T00:26:30.742Z,4.53
2018-09-18T00:28:59.690Z,4.50
2018-09-18T00:31:28.270Z,4.63
2018-09-18T00:33:56.928Z,5.00
2018-09-18T00:36:25.763Z,4.80
2018-09-18T00:38:54.356Z,5.13
2018-09-18T00:41:24.031Z,4.58
2018-09-18T00:43:53.384Z,4.63
2018-09-18T00:46:22.224Z,4.90
2018-09-18T00:48:50.859Z,4.93
2018-09-18T00:51:19.944Z,4.90
2018-09-18T00:53:48.677Z,4.58
2018-09-18T00:56:19.619Z,4.90
2018-09-18T00:58:48.334Z,4.90
2018-09-18T01:01:19.162Z,4.75
2018-09-18T01:03:47.902Z,4.93
2018-09-18T01:06:16.633Z,4.50
2018-09-18T01:08:45.483Z,5.00
2018-09-18T01:11:15.015Z,4.80
2018-09-18T01:13:43.934Z,5.00
2018-09-18T01:16:13.312Z,4.93
2018-09-18T01:18:43.917Z,5.20
2018-09-18T01:21:12.974Z,4.83
2018-09-18T01:23:41.614Z,5.23
2018-09-18T01:26:10.372Z,5.20
2018-09-18T01:28:39.134Z,5.20
2018-09-18T01:31:07.982Z,4.87
2018-09-18T01:33:36.799Z,5.07
2018-09-18T01:36:05.497Z,4.77
2018-09-18T01:38:34.125Z,4.70
2018-09-18T01:41:04.475Z,5.03
2018-09-18T01:43:33.162Z,4.97
2018-09-18T01:46:01.838Z,5.03
2018-09-18T01:48:30.484Z,4.70
2018-09-18T01:50:59.221Z,4.60
2018-09-18T01:53:28.311Z,4.67
2018-09-18T01:55:56.931Z,5.07
2018-09-18T01:58:25.743Z,4.42
2018-09-18T02:00:54.337Z,5.03
2018-09-18T02:03:23.164Z,4.63
2018-09-18T02:05:51.767Z,5.03
2018-09-18T02:08:20.500Z,4.77
2018-09-18T02:10:49.133Z,4.57
2018-09-18T02:13:17.855Z,4.37
2018-09-18T02:15:47.369Z,4.93
2018-09-18T02:18:16.112Z,4.80
2018-09-18T02:20:45.942Z,4.83
2018-09-18T02:23:14.899Z,4.57
2018-09-18T02:25:43.580Z,4.90
2018-09-18T02:28:12.436Z,5.20
2018-09-18T02:30:41.348Z,4.77
2018-09-18T02:33:10.576Z,4.90
2018-09-18T02:35:39.313Z,4.53
2018-09-18T02:38:08.316Z,4.63
2018-09-18T02:40:37.029Z,4.70
2018-09-18T02:43:05.806Z,4.87
2018-09-18T02:45:34.499Z,4.10
2018-09-18T02:48:04.025Z,5.20
2018-09-18T02:50:33.074Z,4.67
2018-09-18T02:53:02.271Z,4.30
2018-09-18T02:55:30.950Z,4.20
2018-09-18T02:57:59.726Z,4.10
2018-09-18T03:00:28.596Z,4.60
2018-09-18T03:02:57.434Z,4.37
2018-09-18T03:05:26.203Z,4.60
2018-09-18T03:07:55.406Z,4.53
2018-09-18T03:10:25.094Z,4.87
2018-09-18T03:12:53.799Z,4.50
2018-09-18T03:15:22.579Z,4.40
2018-09-18T03:17:51.297Z,4.53
2018-09-18T03:20:20.354Z,4.27
2018-09-18T03:22:49.233Z,4.00
2018-09-18T03:25:17.945Z,4.30
2018-09-18T03:27:46.915Z,4.43
2018-09-18T03:30:15.590Z,4.13
2018-09-18T03:32:44.584Z,4.43
2018-09-18T03:35:13.434Z,4.50
2018-09-18T03:37:42.209Z,4.23
2018-09-18T03:40:10.899Z,4.47
2018-09-18T03:42:39.524Z,4.27
2018-09-18T03:45:08.432Z,4.20
2018-09-18T03:47:37.139Z,4.17
2018-09-18T03:50:05.863Z,4.20
2018-09-18T03:52:35.132Z,4.00
2018-09-18T03:55:04.147Z,4.27
2018-09-18T03:57:32.972Z,4.27
2018-09-18T04:00:01.641Z,3.43
2018-09-18T04:02:30.365Z,3.93
2018-09-18T04:04:59.137Z,3.50
2018-09-18T04:07:27.784Z,3.90
2018-09-18T04:09:56.622Z,3.53
2018-09-18T04:12:25.663Z,4.03
2018-09-18T04:14:54.591Z,3.57
2018-09-18T04:17:24.181Z,4.00
2018-09-18T04:19:53.087Z,4.00
2018-09-18T04:22:21.795Z,3.83
2018-09-18T04:24:50.698Z,3.80
2018-09-18T04:27:19.876Z,3.93
2018-09-18T04:29:48.553Z,4.00
2018-09-18T04:32:17.165Z,3.83
2018-09-18T04:34:45.947Z,4.05
2018-09-18T04:37:14.722Z,4.03
2018-09-18T04:39:43.642Z,4.20
2018-09-18T04:42:12.527Z,4.13
2018-09-18T04:44:41.853Z,4.03
2018-09-18T04:47:10.697Z,3.83
2018-09-18T04:49:39.999Z,3.97
2018-09-18T04:52:09.039Z,4.43
2018-09-18T04:54:37.769Z,4.13
2018-09-18T04:57:06.638Z,4.20
2018-09-18T04:59:35.405Z,4.40
2018-09-18T05:02:05.456Z,4.37
2018-09-18T05:04:34.749Z,3.80
2018-09-18T05:07:04.063Z,4.50
2018-09-18T05:09:35.620Z,4.30
2018-09-18T05:12:04.256Z,4.70
2018-09-18T05:14:32.934Z,4.47
2018-09-18T05:17:01.826Z,4.70
2018-09-18T05:19:30.890Z,4.53
2018-09-18T05:21:59.611Z,4.53
2018-09-18T05:24:28.217Z,4.33
2018-09-18T05:26:57.585Z,4.30
2018-09-18T05:29:26.453Z,4.60
2018-09-18T05:31:56.740Z,4.47
2018-09-18T05:34:25.892Z,4.80
2018-09-18T05:36:54.794Z,4.50
2018-09-18T05:39:23.480Z,4.07
2018-09-18T05:41:52.538Z,4.70
2018-09-18T05:44:21.243Z,4.80
2018-09-18T05:46:50.613Z,4.80
2018-09-18T05:49:19.253Z,4.60
2018-09-18T05:51:48.647Z,4.40
2018-09-18T05:54:17.274Z,4.60
2018-09-18T05:56:45.861Z,4.47
2018-09-18T05:59:14.473Z,4.67
2018-09-18T06:01:43.074Z,4.13
2018-09-18T06:04:12.893Z,5.70
2018-09-18T06:06:41.641Z,5.27
2018-09-18T06:09:11.735Z,4.60
2018-09-18T06:11:40.421Z,4.72
2018-09-18T06:14:09.610Z,4.67
2018-09-18T06:16:38.484Z,4.23
2018-09-18T06:19:07.155Z,4.10
2018-09-18T06:21:35.853Z,3.73
2018-09-18T06:24:04.484Z,4.10
2018-09-18T06:26:33.473Z,4.70
2018-09-18T06:29:02.736Z,4.00
2018-09-18T06:31:31.362Z,4.17
2018-09-18T06:34:00.471Z,4.10
2018-09-18T06:36:30.438Z,3.87
2018-09-18T06:38:59.239Z,4.20
2018-09-18T06:41:27.999Z,4.07
2018-09-18T06:43:57.281Z,3.85
2018-09-18T06:46:25.985Z,4.08
2018-09-18T06:48:54.674Z,3.90
2018-09-18T06:51:24.492Z,3.50
2018-09-18T06:53:53.137Z,4.23
2018-09-18T06:56:21.964Z,4.00
2018-09-18T06:58:51.876Z,3.83
2018-09-18T07:01:20.792Z,3.90
2018-09-18T07:03:49.611Z,3.95
2018-09-18T07:06:19.047Z,4.00
2018-09-18T07:08:47.891Z,4.12
2018-09-18T07:11:16.675Z,3.87
2018-09-18T07:13:45.373Z,3.83
2018-09-18T07:16:14.035Z,3.52
2018-09-18T07:18:42.646Z,3.83
2018-09-18T07:21:12.363Z,3.58
2018-09-18T07:23:41.828Z,3.60
2018-09-18T07:26:10.619Z,3.22
2018-09-18T07:28:39.872Z,3.50
2018-09-18T07:31:08.705Z,3.30
2018-09-18T07:33:37.384Z,3.20
2018-09-18T07:36:06.875Z,3.20
2018-09-18T07:38:36.276Z,3.23
2018-09-18T07:41:05.012Z,3.17
2018-09-18T07:43:34.121Z,3.15
2018-09-18T07:46:03.241Z,3.30
2018-09-18T07:48:38.172Z,3.33
2018-09-18T07:51:08.843Z,3.10
2018-09-18T07:53:37.543Z,3.13
2018-09-18T07:56:06.147Z,3.27
2018-09-18T07:58:35.827Z,3.15
2018-09-18T08:01:04.489Z,3.25
2018-09-18T08:03:33.335Z,3.17
2018-09-18T08:06:02.407Z,3.17
2018-09-18T08:08:31.056Z,2.70
2018-09-18T08:10:59.776Z,3.12
2018-09-18T08:13:28.397Z,3.22
2018-09-18T08:15:57.249Z,3.00
2018-09-18T08:18:26.953Z,3.05
2018-09-18T08:20:55.764Z,3.00
2018-09-18T08:23:24.471Z,2.83
2018-09-18T08:25:53.269Z,3.35
2018-09-18T08:28:22.308Z,2.90
2018-09-18T08:30:52.126Z,3.22
2018-09-18T08:33:20.712Z,2.90
2018-09-18T08:35:49.387Z,2.95
2018-09-18T08:38:18.100Z,3.40
2018-09-18T08:40:47.254Z,3.50
2018-09-18T08:43:16.070Z,3.62
2018-09-18T08:45:44.979Z,3.58
2018-09-18T08:48:14.077Z,3.08
2018-09-18T08:50:42.911Z,2.87
2018-09-18T08:53:12.050Z,3.00
2018-09-18T08:55:41.689Z,3.15
2018-09-18T08:58:10.380Z,3.20
2018-09-18T09:00:39.216Z,2.98
2018-09-18T09:03:08.112Z,3.05
2018-09-18T09:05:37.352Z,3.10
2018-09-18T09:08:06.404Z,4.15
2018-09-18T09:10:36.212Z,3.10
2018-09-18T09:13:06.020Z,3.05
2018-09-18T09:15:34.693Z,3.20
2018-09-18T09:18:03.820Z,3.20
2018-09-18T09:20:32.443Z,3.50
2018-09-18T09:23:02.211Z,3.62
2018-09-18T09:25:31.392Z,3.45
2018-09-18T09:28:00.133Z,3.67
2018-09-18T09:30:28.823Z,3.15
2018-09-18T09:32:57.503Z,3.37
2018-09-18T09:35:27.737Z,2.90
2018-09-18T09:37:57.325Z,3.02
2018-09-18T09:40:26.223Z,3.25
2018-09-18T09:42:54.872Z,3.27
2018-09-18T09:45:23.721Z,3.33
2018-09-18T09:47:52.407Z,3.10
2018-09-18T09:50:21.296Z,3.00
2018-09-18T09:52:50.849Z,3.08
2018-09-18T09:55:20.773Z,3.35
2018-09-18T09:57:50.792Z,3.12
2018-09-18T10:00:25.834Z,2.67
2018-09-18T10:02:54.516Z,3.17
2018-09-18T10:05:24.141Z,2.85
2018-09-18T10:07:52.881Z,3.25
2018-09-18T10:10:21.728Z,3.20
2018-09-18T10:12:50.995Z,3.20
2018-09-18T10:15:20.625Z,2.92
2018-09-18T10:17:51.649Z,3.05
2018-09-18T10:20:20.271Z,3.20
2018-09-18T10:22:50.885Z,3.22
2018-09-18T10:25:21.072Z,3.20
2018-09-18T10:27:50.168Z,3.08
2018-09-18T10:30:18.974Z,3.00
2018-09-18T10:32:47.719Z,3.33
2018-09-18T10:35:16.373Z,2.70
2018-09-18T10:37:45.573Z,3.37
2018-09-18T10:40:14.877Z,3.00
2018-09-18T10:42:44.478Z,3.00
2018-09-18T10:45:13.968Z,3.00
2018-09-18T10:47:43.537Z,3.00
2018-09-18T10:50:16.507Z,2.85
2018-09-18T10:52:46.024Z,3.10
2018-09-18T10:55:14.625Z,2.90
2018-09-18T10:57:43.834Z,3.33
2018-09-18T11:00:12.553Z,3.22
2018-09-18T11:02:42.011Z,2.87
2018-09-18T11:05:10.795Z,3.27
2018-09-18T11:07:40.559Z,3.27
2018-09-18T11:10:10.213Z,3.12
2018-09-18T11:12:39.206Z,3.02
2018-09-18T11:15:08.744Z,3.25
2018-09-18T11:17:37.959Z,3.10
2018-09-18T11:20:07.617Z,3.02
2018-09-18T11:22:36.309Z,3.20
2018-09-18T11:25:05.063Z,3.12
2018-09-18T11:27:33.771Z,2.90
2018-09-18T11:30:03.077Z,3.20
2018-09-18T11:32:32.852Z,3.03
2018-09-18T11:35:01.943Z,3.02
2018-09-18T11:37:30.648Z,3.50
2018-09-18T11:39:59.649Z,3.30
2018-09-18T11:42:28.448Z,3.60
2018-09-18T11:44:58.284Z,3.25
2018-09-18T11:47:27.171Z,3.10
2018-09-18T11:49:56.893Z,3.27
2018-09-18T11:52:25.857Z,3.17
2018-09-18T11:54:54.564Z,3.37
2018-09-18T11:57:23.287Z,3.15
2018-09-18T11:59:52.209Z,3.20
2018-09-18T12:02:20.876Z,2.98
2018-09-18T12:04:49.735Z,2.80
2018-09-18T12:07:19.413Z,2.40
2018-09-18T12:09:48.187Z,3.15
2018-09-18T12:12:17.140Z,3.00
2018-09-18T12:14:46.543Z,2.95
2018-09-18T12:17:15.561Z,2.98
2018-09-18T12:19:44.364Z,2.85
2018-09-18T12:22:13.224Z,2.92
2018-09-18T12:24:41.812Z,2.83
2018-09-18T12:27:10.631Z,3.15
2018-09-18T12:29:40.903Z,3.08
2018-09-18T12:32:10.485Z,3.20
2018-09-18T12:34:40.056Z,3.05
2018-09-18T12:37:08.851Z,3.17
2018-09-18T12:39:38.612Z,3.12
2018-09-18T12:42:08.417Z,3.37
2018-09-18T12:44:37.583Z,3.20
2018-09-18T12:47:06.354Z,3.17
2018-09-18T12:49:35.224Z,2.90
2018-09-18T12:52:05.028Z,2.95
2018-09-18T12:54:35.003Z,3.15
2018-09-18T12:57:05.333Z,3.52
2018-09-18T12:59:33.901Z,3.10
2018-09-18T13:02:03.457Z,3.20
2018-09-18T13:04:32.220Z,3.00
2018-09-18T13:07:02.925Z,3.10
2018-09-18T13:09:31.895Z,3.02
2018-09-18T13:12:00.491Z,3.17
2018-09-18T13:14:29.271Z,3.63
2018-09-18T13:16:58.271Z,2.92
2018-09-18T13:19:27.574Z,3.10
2018-09-18T13:21:56.619Z,3.25
2018-09-18T13:24:25.818Z,3.15
2018-09-18T13:26:54.699Z,3.20
2018-09-18T13:29:23.433Z,3.00
2018-09-18T13:31:53.074Z,3.40
2018-09-18T13:34:21.750Z,3.27
2018-09-18T13:36:50.457Z,3.20
2018-09-18T13:39:19.349Z,3.20
2018-09-18T13:41:48.377Z,3.20
2018-09-18T13:44:17.246Z,3.60
2018-09-18T13:46:46.022Z,2.92
2018-09-18T13:49:15.074Z,3.40
2018-09-18T13:51:43.804Z,3.22
2018-09-18T13:54:13.664Z,3.47
2018-09-18T13:56:42.487Z,3.17
2018-09-18T13:59:11.326Z,3.17
2018-09-18T14:01:40.068Z,3.20
2018-09-18T14:04:08.741Z,3.67
2018-09-18T14:06:37.371Z,3.30
2018-09-18T14:09:07.965Z,3.25
2018-09-18T14:11:36.613Z,3.20
2018-09-18T14:14:05.352Z,3.20
2018-09-18T14:16:34.117Z,3.62
2018-09-18T14:19:03.503Z,3.12
2018-09-18T14:21:32.467Z,3.27
2018-09-18T14:24:02.708Z,3.17
2018-09-18T14:26:32.393Z,3.20
2018-09-18T14:29:00.916Z,3.08
2018-09-18T14:31:29.705Z,3.05
2018-09-18T14:34:04.110Z,3.40
2018-09-18T14:36:33.691Z,3.00
2018-09-18T14:39:03.553Z,3.08
2018-09-18T14:41:32.617Z,3.50
2018-09-18T14:44:01.582Z,3.08
2018-09-18T14:46:31.217Z,3.52
2018-09-18T14:49:00.765Z,2.95
2018-09-18T14:51:29.420Z,3.27
2018-09-18T14:53:58.661Z,3.25
2018-09-18T14:56:27.789Z,3.20
2018-09-18T14:58:57.433Z,3.10
2018-09-18T15:01:27.166Z,3.00
2018-09-18T15:03:56.547Z,3.58
2018-09-18T15:06:25.434Z,3.27
2018-09-18T15:08:54.068Z,3.33
2018-09-18T15:11:25.361Z,3.50
2018-09-18T15:13:55.601Z,3.05
2018-09-18T15:16:24.253Z,3.52
2018-09-18T15:18:54.608Z,3.42
2018-09-18T15:21:23.408Z,3.05
2018-09-18T15:23:52.395Z,2.95
2018-09-18T15:26:24.827Z,3.85
2018-09-18T15:28:59.898Z,3.00
2018-09-18T15:31:31.036Z,3.13
2018-09-18T15:34:02.115Z,3.20
2018-09-18T15:36:31.542Z,3.50
2018-09-18T15:39:00.886Z,3.10
2018-09-18T15:41:29.505Z,2.87
2018-09-18T15:43:59.812Z,3.45
2018-09-18T15:46:29.197Z,4.20
2018-09-18T15:49:03.428Z,3.65
2018-09-18T15:51:33.465Z,3.20
2018-09-18T15:54:03.463Z,3.65
2018-09-18T15:56:32.338Z,3.30
2018-09-18T15:59:02.493Z,3.22
2018-09-18T16:01:31.735Z,2.92
2018-09-18T16:04:02.215Z,3.17
2018-09-18T16:06:32.772Z,2.98
2018-09-18T16:09:03.205Z,3.20
2018-09-18T16:11:32.059Z,3.00
2018-09-18T16:14:01.576Z,3.00
2018-09-18T16:16:31.375Z,3.12
2018-09-18T16:19:00.870Z,3.30
2018-09-18T16:21:29.661Z,3.12
2018-09-18T16:23:58.372Z,3.42
2018-09-18T16:26:29.217Z,3.00
2018-09-18T16:28:59.342Z,3.20
2018-09-18T16:31:28.910Z,3.20
2018-09-18T16:34:00.102Z,3.12
2018-09-18T16:36:29.771Z,3.47
2018-09-18T16:38:59.684Z,8.58
2018-09-18T16:41:30.027Z,8.78
2018-09-18T16:43:58.747Z,7.12
2018-09-18T16:46:28.099Z,7.65
2018-09-18T16:48:57.714Z,4.60
2018-09-18T16:51:27.289Z,5.20
2018-09-18T16:53:57.649Z,4.00
2018-09-18T16:56:27.294Z,3.23
2018-09-18T16:58:57.062Z,3.12
2018-09-18T17:01:26.213Z,3.40
2018-09-18T17:03:55.334Z,3.47
2018-09-18T17:06:24.282Z,3.27
2018-09-18T17:08:52.969Z,3.42
2018-09-18T17:11:22.104Z,3.60
2018-09-18T17:13:50.799Z,3.52
2018-09-18T17:16:20.728Z,3.10
2018-09-18T17:18:49.487Z,3.17
2018-09-18T17:21:18.271Z,3.45
2018-09-18T17:23:47.030Z,3.27
2018-09-18T17:26:17.274Z,3.40
2018-09-18T17:28:46.336Z,3.10
2018-09-18T17:31:15.002Z,3.50
2018-09-18T17:33:43.712Z,3.30
2018-09-18T17:36:12.758Z,3.60
2018-09-18T17:38:41.786Z,3.50
2018-09-18T17:41:10.844Z,3.40
2018-09-18T17:43:40.255Z,3.60
2018-09-18T17:46:08.983Z,3.65
2018-09-18T17:48:38.226Z,3.47
2018-09-18T17:51:07.333Z,3.75
2018-09-18T17:53:36.912Z,4.57
2018-09-18T17:56:06.810Z,4.20
2018-09-18T17:58:35.718Z,4.60
2018-09-18T18:01:05.267Z,5.22
2018-09-18T18:03:34.239Z,5.08
2018-09-18T18:06:04.419Z,4.22
2018-09-18T18:08:35.023Z,4.37
2018-09-18T18:11:08.749Z,4.12
2018-09-18T18:13:39.520Z,4.12
2018-09-18T18:16:10.063Z,4.00
2018-09-18T18:18:42.638Z,4.35
2018-09-18T18:21:12.878Z,4.15
2018-09-18T18:23:46.477Z,4.78
2018-09-18T18:26:18.283Z,3.98
2018-09-18T18:28:46.989Z,4.55
2018-09-18T18:31:15.810Z,3.98
2018-09-18T18:33:44.648Z,4.15
2018-09-18T18:36:13.907Z,4.20
2018-09-18T18:38:42.756Z,4.40
2018-09-18T18:41:11.741Z,4.30
2018-09-18T18:43:40.610Z,4.25
2018-09-18T18:46:10.572Z,4.17
2018-09-18T18:48:39.967Z,4.45
2018-09-18T18:51:09.320Z,4.60
2018-09-18T18:53:38.310Z,4.30
2018-09-18T18:56:07.938Z,4.22
2018-09-18T18:58:38.268Z,4.72
2018-09-18T19:01:07.663Z,4.37
2018-09-18T19:03:37.264Z,4.70
2018-09-18T19:06:06.277Z,4.07
2018-09-18T19:08:36.240Z,4.10
2018-09-18T19:11:05.001Z,4.83
2018-09-18T19:13:34.588Z,3.98
2018-09-18T19:16:04.283Z,4.20
2018-09-18T19:18:33.293Z,3.98
2018-09-18T19:21:02.871Z,3.87
2018-09-18T19:23:32.296Z,3.90
2018-09-18T19:26:01.849Z,4.17
2018-09-18T19:28:30.886Z,4.03
2018-09-18T19:30:59.752Z,3.42
2018-09-18T19:33:29.214Z,3.98
2018-09-18T19:35:58.644Z,3.60
2018-09-18T19:38:27.475Z,3.60
2018-09-18T19:40:56.246Z,3.42
2018-09-18T19:43:25.160Z,3.50
2018-09-18T19:45:54.363Z,3.15
2018-09-18T19:48:24.834Z,3.02
2018-09-18T19:50:53.830Z,5.90
2018-09-18T19:53:22.842Z,5.12
2018-09-18T19:55:53.483Z,3.83
2018-09-18T19:58:22.370Z,3.50
2018-09-18T20:00:51.862Z,3.22
2018-09-18T20:03:21.199Z,3.12
2018-09-18T20:05:50.107Z,3.10
2018-09-18T20:08:20.028Z,3.40
2018-09-18T20:10:49.124Z,2.90
2018-09-18T20:13:18.205Z,3.10
2018-09-18T20:15:47.026Z,2.83
2018-09-18T20:18:15.825Z,2.90
2018-09-18T20:20:45.057Z,2.72
2018-09-18T20:23:15.240Z,2.90
2018-09-18T20:25:44.596Z,2.83
2018-09-18T20:28:13.632Z,3.00
2018-09-18T20:30:44.549Z,3.05
2018-09-18T20:33:15.077Z,3.27
2018-09-18T20:35:44.076Z,3.30
2018-09-18T20:38:13.235Z,3.08
2018-09-18T20:40:42.151Z,2.90
2018-09-18T20:43:11.309Z,3.15
2018-09-18T20:45:41.242Z,2.80
2018-09-18T20:48:10.422Z,3.30
2018-09-18T20:50:39.781Z,2.90
2018-09-18T20:53:08.909Z,3.08
2018-09-18T20:55:37.908Z,2.60
2018-09-18T20:58:07.596Z,3.20
2018-09-18T21:00:36.738Z,3.10
2018-09-18T21:03:05.945Z,3.37
2018-09-18T21:05:35.425Z,3.00
2018-09-18T21:08:04.340Z,3.40
2018-09-18T21:10:33.528Z,2.90
2018-09-18T21:13:02.338Z,3.17
2018-09-18T21:15:31.299Z,2.85
2018-09-18T21:18:00.913Z,2.92
2018-09-18T21:20:30.588Z,4.93
2018-09-18T21:22:59.621Z,3.90
2018-09-18T21:25:38.289Z,6.28
2018-09-18T21:28:07.075Z,3.90
2018-09-18T21:30:35.766Z,3.30
2018-09-18T21:33:04.780Z,3.60
2018-09-18T21:35:33.578Z,3.30
2018-09-18T21:38:03.729Z,2.67
2018-09-18T21:40:32.505Z,3.80
2018-09-18T21:43:01.735Z,3.05
2018-09-18T21:45:30.548Z,3.47
2018-09-18T21:47:59.464Z,3.42
2018-09-18T21:50:28.736Z,3.50
2018-09-18T21:53:00.456Z,4.20
2018-09-18T21:55:29.299Z,3.85
2018-09-18T21:57:57.986Z,4.05
2018-09-18T22:00:26.785Z,5.22
2018-09-18T22:02:55.544Z,5.25
2018-09-18T22:05:24.477Z,5.53
2018-09-18T22:07:55.047Z,5.72
2018-09-18T22:10:30.790Z,6.62
2018-09-18T22:13:00.610Z,6.47
2018-09-18T22:15:30.127Z,7.45
2018-09-18T22:17:59.137Z,9.10
2018-09-18T22:20:28.009Z,8.97
2018-09-18T22:22:57.128Z,10.72
2018-09-18T22:25:26.196Z,9.80
2018-09-18T22:27:55.182Z,10.78
2018-09-18T22:30:24.206Z,12.50
2018-09-18T22:33:23.760Z,13.70
2018-09-18T22:35:52.960Z,14.38
2018-09-18T22:38:21.781Z,13.95
2018-09-18T22:40:50.708Z,15.78
2018-09-18T22:43:19.662Z,16.20
2018-09-18T22:45:48.443Z,18.65
2018-09-18T22:48:17.301Z,16.32
2018-09-18T22:50:46.408Z,17.30
2018-09-18T22:53:15.273Z,16.25
2018-09-18T22:55:44.087Z,15.68
2018-09-18T22:58:12.907Z,18.80
2018-09-18T23:00:41.647Z,17.65
2018-09-18T23:03:11.017Z,19.95
2018-09-18T23:05:39.792Z,19.80
2018-09-18T23:08:10.786Z,19.35
2018-09-18T23:10:39.785Z,18.62
2018-09-18T23:13:09.772Z,19.12
2018-09-18T23:15:39.381Z,18.73
2018-09-18T23:18:08.559Z,18.75
2018-09-18T23:20:37.730Z,18.53
2018-09-18T23:23:06.595Z,18.20
2018-09-18T23:25:36.169Z,17.45
2018-09-18T23:28:04.948Z,16.05
2018-09-18T23:30:34.315Z,16.80
2018-09-18T23:33:03.641Z,17.62
2018-09-18T23:35:32.753Z,17.75
2018-09-18T23:38:02.188Z,16.80
2018-09-18T23:40:31.306Z,17.25
2018-09-18T23:43:00.063Z,16.82
2018-09-18T23:45:28.741Z,16.87
2018-09-18T23:47:57.491Z,17.20
2018-09-18T23:50:26.233Z,16.73
2018-09-18T23:53:01.323Z,17.48
2018-09-18T23:55:30.109Z,17.12
2018-09-18T23:57:59.005Z,17.67
